AirNav   ProFlight Series 2 Aviation Headset
 
 965 users online  

PA34 St Lukes Anderson Heliport
Easton, Pennsylvania, USA


FAA INFORMATION EFFECTIVE 18 JUNE 2020

Location

FAA Identifier: PA34
Lat/Long: 40-39-03.0000N 075-17-15.0000W
40-39.050000N 075-17.250000W
40.6508333,-75.2875000
(estimated)
Elevation: 377 ft. / 115 m (estimated)
From city: 5 miles WSW of EASTON, PA
Time zone: UTC +0 (year round; does not observe DST)
Zip code: 18017

Heliport Operations

Heliport use: Private use. Permission required prior to landing
Activation date: 02/2020
Control tower: no
ARTCC: NEW YORK CENTER
FSS: WILLIAMSPORT FLIGHT SERVICE STATION
Attendance: 
Segmented circle: no

Heliport Communications

WX ASOS at ABE (7 nm W): 126.975 (610-266-3579)
WX AWOS-3 at XLL (10 nm SW): 127.875 (610-231-3111)
WX AWOS-3 at UKT (14 nm S): 119.475 (215-538-7610)
WX AWOS-3 at N40 (15 nm E): 121.725
WX AWOS-3 at CKZ (16 nm S): 126.325 (215-257-7291)

Nearby radio navigation aids

VOR radial/distance  VOR name  Freq  Var
FJCr131/8.9ALLENTOWN VORTAC117.5010W
ETXr086/18.5EAST TEXAS VOR/DME110.2009W
BWZr258/23.0BROADWAY VOR/DME114.2011W
SBJr289/25.2SOLBERG VOR/DME112.9010W
STWr234/28.1STILLWATER VOR/DME109.6011W
PTWr035/28.6POTTSTOWN VORTAC116.5009W
ARDr334/29.5YARDLEY VOR/DME108.2010W

 
NDB name  Hdg/Dist  Freq  Var  ID
AMBLER012/31.527512WING .. -. --.
CHATHAM275/39.425413WCAT -.-. .- -

Heliport Services

Runway Information

Helipad H1

Dimensions: 55 x 55 ft. / 17 x 17 m
Surface: asphalt
Latitude: 40-39.050000N
Longitude: 075-17.250000W
Elevation: 377.0 ft.
Traffic pattern: leftleft

Heliport Ownership and Management from official FAA records

Ownership: Privately-owned
Manager: ST LUKES HOSPITAL
1872 ST LUKES BLVD
EASTON, PA
Phone 610-297-0994

Heliport Operational Statistics

Aircraft based on the field: 1
Helicopters: 1
    

Instrument Procedures

There are no published instrument procedures at PA34.

Some nearby airports with instrument procedures:

N43 - Braden Airpark (6 nm N)
KABE - Lehigh Valley International Airport (7 nm W)
KXLL - Allentown Queen City Municipal Airport (10 nm SW)
N85 - Alexandria Airport (13 nm E)
KUKT - Quakertown Airport (14 nm S)
N40 - Sky Manor Airport (15 nm E)
KCKZ - Pennridge Airport (16 nm S)
 
Loc | Ops | Rwys | IFR | FBO | Links
Com | Nav | Svcs | Stats | Notes
Aerial photo
No photo
 
Airport distance calculator
Flying to St Lukes Anderson Heliport? Find the distance to fly.

From to PA34

Sunrise and sunset
Times for 14-Jul-2020
 Zulu (UTC)
Morning civil twilight09:12
Sunrise09:44
Sunset00:30
Evening civil twilight01:02

Current date and time
Zulu (UTC)  15-Jul-2020 01:52:20
 
METAR
KABE 
7nm W 
150051Z 00000KT 10SM CLR 24/16 A3004 RMK AO2 SLP170 T02390156
KXLL 
10nm SW 
150135Z AUTO 00000KT 10SM CLR 24/17 A3007 RMK AO2
KUKT 
14nm S 
150135Z AUTO 00000KT 10SM CLR 23/19 A3007 RMK A01
KCKZ 
16nm S 
150135Z AUTO 00000KT 10SM CLR 20/20 A3008 RMK AO2
TAF
KABE 
7nm W 
141720Z 1418/1518 32008KT P6SM FEW050 FM142300 VRB03KT P6SM SKC
NOTAMs
Click for the latest NOTAMs
NOTAMs are issued by the DoD/FAA and will open in a separate window not controlled by AirNav.

 

 
 

Would you like to see your business listed on this page?

 If your business provides an interesting product or service to pilots, flight crews, aircraft, or users of the St Lukes Anderson Heliport, you should consider listing it here.  To start the listing process, click on the button below
 
Add a business
 

Other Pages about St Lukes Anderson Heliport

Update a link
 
Copyright © AirNav, LLC. All rights reserved. Privacy Policy  Contact